LEZL

Sevilla Airport

Sevilla, Spain
TAF LEZL 210800Z 2109/2209 32004KT CAVOK TX34/2116Z TN19/2205Z BECMG 2116/2118 22010KT BECMG 2200/2202 VRB02KT
Issued Valid From Valid To
Jun-21 @ 08:00 UTC
(2 hours ago)
Jun-21 @ 09:00 UTC
(an hour ago)
Jun-22 @ 09:00 UTC
(in 23 hours)
Jun-21 @ 09:00 to Jun-21 @ 16:00
TAF LEZL 210800Z 2109/2209 32004KT CAVOK TX34/2116Z TN19/2205Z
Wind Visibility Clouds
320° at 4 knots 10,000+ meters
  • No significant clouds
Becoming Jun-21 @ 16:00 to Jun-22 @ 00:00
BECMG 2116/2118 22010KT
Wind Visibility Clouds
220° at 10 knots 10,000+ meters
  • No significant clouds
Becoming Jun-22 @ 00:00 to Jun-22 @ 09:00
BECMG 2200/2202 VRB02KT
Wind Visibility Clouds
Variable at 2 knots 10,000+ meters
  • No significant clouds
TAF LEZL 210800Z 2109/2209 32004KT CAVOK TX34/2116Z TN19/2205Z BECMG 2116/2118 22010KT BECMG 2200/2202 VRB02KT
Issued Jun-21 @ 08:00 UTC
(2 hours ago)
Valid From Jun-21 @ 09:00 UTC
(an hour ago)
Valid To Jun-22 @ 09:00 UTC
(in 23 hours)
Jun-21 @ 09:00 - Jun-21 @ 16:00
Wind Visibility
320° at 4 knots 10,000+ meters
Clouds
  • No significant clouds
Becoming Jun-21 @ 16:00 - Jun-22 @ 00:00
Wind Visibility
220° at 10 knots 10,000+ meters
Clouds
  • No significant clouds
Becoming Jun-22 @ 00:00 - Jun-22 @ 09:00
Wind Visibility
Variable at 2 knots 10,000+ meters
Clouds
  • No significant clouds